createdAt,value
2022-10-14T00:04:10.655Z,16.90
2022-10-14T00:09:16.043Z,20.43
2022-10-14T00:14:23.474Z,18.63
2022-10-14T00:19:30.611Z,19.60
2022-10-14T00:24:35.983Z,19.00
2022-10-14T00:29:41.515Z,15.90
2022-10-14T00:34:47.137Z,22.67
2022-10-14T00:39:56.904Z,20.00
2022-10-14T00:45:07.294Z,19.77
2022-10-14T00:50:16.062Z,27.20
2022-10-14T00:55:21.697Z,24.17
2022-10-14T01:00:27.448Z,19.73
2022-10-14T01:05:35.903Z,18.67
2022-10-14T01:10:53.502Z,19.57
2022-10-14T01:16:20.225Z,17.43
2022-10-14T01:21:45.659Z,20.67
2022-10-14T01:27:01.487Z,23.03
2022-10-14T01:32:15.789Z,17.90
2022-10-14T01:37:24.404Z,15.73
2022-10-14T01:42:34.509Z,14.80
2022-10-14T01:47:42.544Z,21.37
2022-10-14T01:52:59.028Z,19.20
2022-10-14T01:58:07.276Z,20.37
2022-10-14T02:03:15.955Z,21.23
2022-10-14T02:08:39.533Z,20.80
2022-10-14T02:14:00.088Z,16.03
2022-10-14T02:19:26.500Z,17.33
2022-10-14T02:24:35.089Z,17.30
2022-10-14T02:29:43.838Z,17.10
2022-10-14T02:34:53.167Z,20.07
2022-10-14T02:40:03.384Z,22.37
2022-10-14T02:45:11.801Z,20.13
2022-10-14T02:50:19.235Z,17.87
2022-10-14T02:55:24.835Z,20.07
2022-10-14T03:00:30.365Z,19.33
2022-10-14T03:05:36.470Z,17.97
2022-10-14T03:10:42.808Z,19.13
2022-10-14T03:15:50.646Z,17.07
2022-10-14T03:20:57.037Z,22.00
2022-10-14T03:26:04.285Z,25.47
2022-10-14T03:31:11.706Z,23.47
2022-10-14T03:36:18.959Z,25.10
2022-10-14T03:41:26.500Z,22.63
2022-10-14T03:46:32.924Z,25.37
2022-10-14T03:51:38.955Z,23.17
2022-10-14T03:56:46.802Z,27.37
2022-10-14T04:01:53.639Z,25.47
2022-10-14T04:07:02.871Z,23.77
2022-10-14T04:12:09.203Z,21.53
2022-10-14T04:17:22.429Z,17.67
2022-10-14T04:22:30.115Z,22.33
2022-10-14T04:27:37.118Z,18.23
2022-10-14T04:32:44.360Z,17.40
2022-10-14T04:37:50.201Z,21.57
2022-10-14T04:43:03.409Z,19.60
2022-10-14T04:48:10.566Z,21.77
2022-10-14T04:53:21.924Z,24.70
2022-10-14T04:58:26.561Z,20.33
2022-10-14T05:03:32.464Z,22.40
2022-10-14T05:08:39.036Z,21.23
2022-10-14T05:13:46.342Z,19.73
2022-10-14T05:18:53.943Z,22.00
2022-10-14T05:24:00.988Z,24.70
2022-10-14T05:29:08.214Z,23.57
2022-10-14T05:34:15.446Z,21.47
2022-10-14T05:39:21.080Z,21.70
2022-10-14T05:44:26.806Z,26.03
2022-10-14T05:49:32.443Z,25.07
2022-10-14T05:54:39.199Z,24.43
2022-10-14T05:59:45.932Z,23.67
2022-10-14T06:04:52.998Z,24.83
2022-10-14T06:09:58.663Z,22.03
2022-10-14T06:15:04.770Z,26.50
2022-10-14T06:20:11.461Z,23.93
2022-10-14T06:25:17.160Z,23.60
2022-10-14T06:30:22.786Z,24.23
2022-10-14T06:35:28.741Z,25.60
2022-10-14T06:40:34.234Z,25.30
2022-10-14T06:45:39.871Z,23.83
2022-10-14T06:50:45.697Z,18.07
2022-10-14T06:55:53.333Z,17.67
2022-10-14T07:01:11.666Z,20.00
2022-10-14T07:06:17.319Z,18.13
2022-10-14T07:11:22.850Z,15.73
2022-10-14T07:16:28.802Z,15.60
2022-10-14T07:21:35.503Z,17.20
2022-10-14T07:26:41.166Z,13.20
2022-10-14T07:31:46.813Z,15.73
2022-10-14T07:36:52.287Z,13.70
2022-10-14T07:41:57.833Z,15.87
2022-10-14T07:47:03.426Z,17.10
2022-10-14T07:52:09.414Z,18.97
2022-10-14T07:57:15.207Z,17.33
2022-10-14T08:02:21.212Z,13.90
2022-10-14T08:07:27.108Z,13.53
2022-10-14T08:12:32.571Z,18.27
2022-10-14T08:17:38.731Z,16.40
2022-10-14T08:22:44.128Z,13.03
2022-10-14T08:27:52.606Z,19.77
2022-10-14T08:33:00.189Z,14.30
2022-10-14T08:38:05.592Z,13.77
2022-10-14T08:43:28.846Z,11.97
2022-10-14T08:48:35.844Z,14.13
2022-10-14T08:53:47.165Z,14.07
2022-10-14T08:58:54.582Z,13.97
2022-10-14T09:04:11.787Z,11.73
2022-10-14T09:09:35.664Z,12.23
2022-10-14T09:14:47.781Z,10.40
2022-10-14T09:20:05.367Z,11.30
2022-10-14T09:25:18.903Z,11.37
2022-10-14T09:30:24.375Z,12.70
2022-10-14T09:35:32.881Z,12.13
2022-10-14T09:40:43.980Z,11.57
2022-10-14T09:46:01.192Z,13.60
2022-10-14T09:51:12.468Z,13.50
2022-10-14T09:56:21.256Z,11.17
2022-10-14T10:01:29.698Z,12.50
2022-10-14T10:06:38.132Z,13.00
2022-10-14T10:11:43.919Z,10.13
2022-10-14T10:21:58.337Z,12.87
2022-10-14T10:27:08.407Z,13.10
2022-10-14T10:32:20.104Z,10.33
2022-10-14T10:37:32.072Z,10.20
2022-10-14T10:42:46.131Z,9.63
2022-10-14T10:47:54.577Z,12.07
2022-10-14T10:53:13.931Z,10.10
2022-10-14T10:58:35.639Z,11.67
2022-10-14T11:03:49.934Z,11.53
2022-10-14T11:09:19.083Z,11.33
2022-10-14T11:14:48.757Z,9.53
2022-10-14T11:20:02.971Z,8.20
2022-10-14T11:25:23.845Z,7.03
2022-10-14T11:30:34.917Z,12.67
2022-10-14T11:35:46.085Z,7.93
2022-10-14T11:41:03.540Z,8.47
2022-10-14T11:46:15.444Z,13.50
2022-10-14T11:51:36.104Z,11.57
2022-10-14T11:56:47.705Z,9.67
2022-10-14T12:01:56.200Z,8.83
2022-10-14T12:07:07.328Z,9.90
2022-10-14T12:12:15.770Z,10.23
2022-10-14T12:17:24.709Z,8.43
2022-10-14T12:22:32.395Z,7.77
2022-10-14T12:27:39.527Z,9.30
2022-10-14T12:33:06.057Z,8.77
2022-10-14T12:38:13.525Z,9.57
2022-10-14T12:43:29.912Z,9.70
2022-10-14T12:48:37.231Z,9.33
2022-10-14T12:53:51.737Z,11.53
2022-10-14T12:59:02.216Z,9.10
2022-10-14T13:04:14.998Z,10.03
2022-10-14T13:09:33.741Z,8.50
2022-10-14T13:15:00.181Z,10.20
2022-10-14T13:20:07.361Z,11.33
2022-10-14T13:25:19.084Z,11.50
2022-10-14T13:30:34.163Z,10.67
2022-10-14T13:35:52.101Z,13.70
2022-10-14T13:40:59.337Z,14.33
2022-10-14T13:46:09.686Z,10.40
2022-10-14T13:51:31.803Z,12.87
2022-10-14T13:56:32.097Z,13.60
2022-10-14T14:01:39.979Z,13.13
2022-10-14T14:07:02.993Z,12.80
2022-10-14T14:11:56.819Z,14.53
2022-10-14T14:17:05.339Z,14.87
2022-10-14T14:22:16.836Z,16.67
2022-10-14T14:27:26.796Z,11.10
2022-10-14T14:32:33.890Z,13.00
2022-10-14T14:37:55.284Z,11.90
2022-10-14T14:42:55.129Z,12.07
2022-10-14T14:48:06.098Z,13.17
2022-10-14T14:53:25.246Z,13.33
2022-10-14T14:58:52.919Z,12.83
2022-10-14T15:04:11.969Z,11.90
2022-10-14T15:09:14.163Z,11.80
2022-10-14T15:14:35.698Z,11.40
2022-10-14T15:19:41.469Z,11.33
2022-10-14T15:25:01.404Z,14.47
2022-10-14T15:30:38.274Z,11.87
2022-10-14T15:35:45.302Z,11.40
2022-10-14T15:40:51.592Z,12.93
2022-10-14T15:46:18.483Z,10.13
2022-10-14T15:51:25.218Z,12.97
2022-10-14T15:56:32.066Z,13.63
2022-10-14T16:01:41.229Z,12.70
2022-10-14T16:06:47.389Z,12.60
2022-10-14T16:11:54.504Z,11.07
2022-10-14T16:17:02.743Z,13.43
2022-10-14T16:22:08.202Z,9.83
2022-10-14T16:27:15.682Z,9.63
2022-10-14T16:32:21.327Z,12.17
2022-10-14T16:37:27.536Z,11.37
2022-10-14T16:42:33.070Z,10.80
2022-10-14T16:47:39.146Z,13.47
2022-10-14T16:53:05.989Z,10.63
2022-10-14T16:58:12.656Z,8.37
2022-10-14T17:03:18.359Z,11.23
2022-10-14T17:08:24.709Z,11.53
2022-10-14T17:13:31.860Z,11.30
2022-10-14T17:18:37.887Z,10.07
2022-10-14T17:23:45.597Z,11.87
2022-10-14T17:28:51.951Z,12.87
2022-10-14T17:33:57.854Z,11.43
2022-10-14T17:39:03.447Z,13.00
2022-10-14T17:44:09.667Z,18.27
2022-10-14T17:49:16.110Z,15.93
2022-10-14T17:54:21.827Z,14.90
2022-10-14T17:59:27.533Z,12.60
2022-10-14T18:04:33.300Z,12.53
2022-10-14T18:09:38.773Z,12.23
2022-10-14T18:14:44.627Z,15.18
2022-10-14T18:19:52.391Z,17.50
2022-10-14T18:24:57.448Z,14.10
2022-10-14T18:30:03.012Z,14.27
2022-10-14T18:35:09.039Z,13.27
2022-10-14T18:40:16.259Z,12.47
2022-10-14T18:45:21.797Z,16.10
2022-10-14T18:50:27.330Z,13.03
2022-10-14T18:55:32.724Z,13.03
2022-10-14T19:00:39.322Z,13.63
2022-10-14T19:05:44.939Z,14.97
2022-10-14T19:10:51.213Z,14.43
2022-10-14T19:16:04.775Z,13.97
2022-10-14T19:21:14.537Z,12.90
2022-10-14T19:26:22.989Z,14.60
2022-10-14T19:31:30.810Z,16.00
2022-10-14T19:36:38.936Z,13.23
2022-10-14T19:41:46.674Z,14.77
2022-10-14T19:46:52.265Z,14.27
2022-10-14T19:51:57.773Z,15.17
2022-10-14T19:57:03.489Z,15.10
2022-10-14T20:02:10.924Z,14.40
2022-10-14T20:07:16.609Z,18.30
2022-10-14T20:12:22.813Z,13.97
2022-10-14T20:17:28.750Z,12.60
2022-10-14T20:22:34.436Z,12.23
2022-10-14T20:27:40.139Z,12.37
2022-10-14T20:32:45.750Z,15.43
2022-10-14T20:37:52.423Z,12.67
2022-10-14T20:42:58.635Z,11.70
2022-10-14T20:48:04.280Z,15.23
2022-10-14T20:53:09.889Z,16.27
2022-10-14T20:58:15.423Z,13.63
2022-10-14T21:03:20.895Z,13.67
2022-10-14T21:08:26.421Z,12.10
2022-10-14T21:13:32.433Z,11.57
2022-10-14T21:18:37.889Z,13.53
2022-10-14T21:23:43.360Z,14.13
2022-10-14T21:28:49.220Z,12.83
2022-10-14T21:34:05.041Z,14.67
2022-10-14T21:39:11.374Z,13.97
2022-10-14T21:44:19.858Z,13.93
2022-10-14T21:49:25.398Z,13.40
2022-10-14T21:54:30.925Z,15.47
2022-10-14T21:59:36.393Z,14.60
2022-10-14T22:04:41.871Z,13.37
2022-10-14T22:09:47.329Z,15.73
2022-10-14T22:14:52.926Z,16.07
2022-10-14T22:19:59.319Z,14.13
2022-10-14T22:25:05.209Z,16.40
2022-10-14T22:30:11.792Z,16.37
2022-10-14T22:35:17.448Z,16.93
2022-10-14T22:40:22.905Z,17.47
2022-10-14T22:45:28.386Z,19.57
2022-10-14T22:50:36.250Z,18.63
2022-10-14T22:55:41.734Z,14.97
2022-10-14T23:00:47.481Z,14.97
2022-10-14T23:05:52.946Z,18.67
2022-10-14T23:11:00.539Z,19.60
2022-10-14T23:16:08.419Z,20.27
2022-10-14T23:21:16.790Z,16.63
2022-10-14T23:26:24.751Z,18.60
2022-10-14T23:31:33.251Z,18.00
2022-10-14T23:36:38.920Z,19.23
2022-10-14T23:41:44.926Z,18.40
2022-10-14T23:46:50.548Z,21.93
2022-10-14T23:51:56.937Z,18.90
2022-10-14T23:57:02.405Z,18.33
